createdAt,value
2019-04-04T00:01:57.680Z,38.10
2019-04-04T00:07:02.513Z,38.00
2019-04-04T00:12:08.058Z,38.50
2019-04-04T00:17:13.572Z,38.10
2019-04-04T00:22:18.417Z,42.70
2019-04-04T00:27:23.244Z,40.70
2019-04-04T00:32:28.028Z,40.10
2019-04-04T00:37:35.718Z,39.80
2019-04-04T00:42:39.360Z,39.50
2019-04-04T00:47:44.202Z,39.60
2019-04-04T00:52:49.077Z,39.70
2019-04-04T00:57:54.006Z,39.80
2019-04-04T01:02:58.996Z,40.00
2019-04-04T01:08:06.638Z,39.70
2019-04-04T01:13:10.534Z,39.70
2019-04-04T01:18:16.052Z,40.10
2019-04-04T01:23:20.884Z,40.40
2019-04-04T01:28:25.707Z,40.50
2019-04-04T01:33:30.542Z,41.00
2019-04-04T01:38:35.310Z,41.10
2019-04-04T01:43:40.710Z,41.40
2019-04-04T01:48:45.697Z,41.90
2019-04-04T01:53:50.539Z,42.00
2019-04-04T01:58:56.036Z,42.60
2019-04-04T02:04:01.832Z,42.50
2019-04-04T02:09:07.665Z,42.80
2019-04-04T02:14:13.386Z,42.70
2019-04-04T02:19:18.213Z,42.90
2019-04-04T02:24:23.050Z,43.00
2019-04-04T02:29:27.876Z,43.40
2019-04-04T02:34:32.722Z,43.90
2019-04-04T02:39:37.890Z,44.00
2019-04-04T02:44:45.830Z,44.40
2019-04-04T02:49:51.089Z,44.90
2019-04-04T02:54:58.282Z,44.50
2019-04-04T03:00:02.631Z,44.40
2019-04-04T03:05:07.454Z,44.60
2019-04-04T03:10:15.186Z,44.30
2019-04-04T03:15:18.766Z,44.40
2019-04-04T03:20:23.573Z,44.80
2019-04-04T03:25:28.321Z,45.30
2019-04-04T03:30:33.164Z,45.20
2019-04-04T03:35:38.002Z,45.30
2019-04-04T03:40:42.820Z,45.30
2019-04-04T03:45:47.669Z,45.60
2019-04-04T03:50:52.477Z,45.90
2019-04-04T03:56:00.202Z,45.80
2019-04-04T04:01:03.787Z,46.00
2019-04-04T04:06:09.790Z,46.10
2019-04-04T04:11:14.792Z,46.30
2019-04-04T04:16:19.572Z,46.30
2019-04-04T04:21:24.902Z,46.40
2019-04-04T04:26:29.769Z,46.50
2019-04-04T04:31:34.627Z,46.40
2019-04-04T04:36:39.503Z,46.70
2019-04-04T04:41:44.346Z,46.80
2019-04-04T04:46:50.288Z,47.00
2019-04-04T04:51:55.607Z,47.20
2019-04-04T04:57:03.475Z,47.30
2019-04-04T05:02:07.163Z,47.50
2019-04-04T05:07:12.031Z,47.50
2019-04-04T05:12:16.884Z,48.30
2019-04-04T05:17:21.935Z,48.10
2019-04-04T05:22:26.739Z,48.40
2019-04-04T05:27:31.818Z,48.60
2019-04-04T05:32:36.689Z,48.40
2019-04-04T05:37:41.533Z,48.20
2019-04-04T05:42:46.410Z,48.10
2019-04-04T05:47:51.278Z,47.70
2019-04-04T05:52:56.069Z,47.70
2019-04-04T05:58:00.868Z,47.50
2019-04-04T06:03:05.793Z,47.70
2019-04-04T06:08:10.662Z,47.00
2019-04-04T06:13:15.409Z,47.00
2019-04-04T06:18:33.873Z,46.80
2019-04-04T06:23:38.713Z,46.30
2019-04-04T06:28:55.662Z,45.80
2019-04-04T06:34:00.498Z,45.70
2019-04-04T06:39:08.510Z,45.50
2019-04-04T06:44:13.724Z,45.90
2019-04-04T06:49:18.783Z,45.30
2019-04-04T06:54:25.676Z,45.20
2019-04-04T06:59:30.004Z,45.30
2019-04-04T07:04:36.035Z,45.10
2019-04-04T07:09:41.035Z,44.90
2019-04-04T07:14:49.239Z,44.80
2019-04-04T07:19:52.248Z,44.90
2019-04-04T07:24:57.089Z,44.80
2019-04-04T07:30:01.928Z,44.50
2019-04-04T07:35:07.957Z,44.40
2019-04-04T07:40:13.392Z,44.00
2019-04-04T07:45:18.242Z,43.40
2019-04-04T07:50:24.155Z,43.20
2019-04-04T07:55:29.534Z,42.50
2019-04-04T08:00:34.373Z,42.20
2019-04-04T08:05:39.308Z,41.70
2019-04-04T08:10:44.181Z,42.30
2019-04-04T08:15:49.012Z,42.50
2019-04-04T08:20:53.855Z,43.50
2019-04-04T08:25:58.626Z,44.70
2019-04-04T08:31:03.472Z,43.50
2019-04-04T08:36:08.323Z,41.70
2019-04-04T08:41:13.141Z,41.80
2019-04-04T08:46:19.869Z,42.30
2019-04-04T08:51:24.640Z,40.90
2019-04-04T08:56:29.484Z,40.10
2019-04-04T09:01:34.323Z,40.20
2019-04-04T09:06:39.731Z,40.00
2019-04-04T09:11:44.496Z,39.50
2019-04-04T09:16:49.422Z,38.90
2019-04-04T09:21:54.310Z,38.70
2019-04-04T09:26:59.147Z,37.40
2019-04-04T09:32:03.980Z,38.50
2019-04-04T09:37:09.011Z,38.10
2019-04-04T09:42:13.941Z,36.70
2019-04-04T09:47:18.772Z,37.20
2019-04-04T09:52:23.606Z,37.70
2019-04-04T09:57:28.445Z,37.90
2019-04-04T10:02:33.866Z,36.40
2019-04-04T10:07:39.578Z,36.00
2019-04-04T10:12:44.480Z,36.40
2019-04-04T10:17:49.602Z,36.20
2019-04-04T10:22:54.381Z,36.80
2019-04-04T10:27:59.225Z,35.30
2019-04-04T10:33:04.147Z,34.20
2019-04-04T10:38:08.989Z,34.90
2019-04-04T10:43:13.824Z,35.50
2019-04-04T10:48:18.652Z,34.40
2019-04-04T10:53:23.501Z,35.80
2019-04-04T10:58:28.382Z,34.80
2019-04-04T11:03:33.310Z,34.40
2019-04-04T11:08:38.522Z,34.10
2019-04-04T11:13:43.394Z,35.00
2019-04-04T11:18:48.253Z,34.50
2019-04-04T11:23:53.095Z,33.70
2019-04-04T11:28:57.924Z,34.30
2019-04-04T11:34:02.628Z,34.10
2019-04-04T11:39:07.779Z,33.40
2019-04-04T11:44:12.609Z,33.30
2019-04-04T11:49:17.398Z,33.80
2019-04-04T11:54:22.243Z,34.00
2019-04-04T11:59:39.322Z,33.90
2019-04-04T12:04:44.156Z,33.90
2019-04-04T12:09:49.097Z,34.50
2019-04-04T12:14:53.940Z,33.50
2019-04-04T12:19:58.882Z,33.40
2019-04-04T12:25:03.822Z,34.40
2019-04-04T12:30:09.858Z,33.60
2019-04-04T12:35:15.254Z,33.20
2019-04-04T12:40:21.277Z,33.30
2019-04-04T12:45:26.651Z,32.50
2019-04-04T12:50:31.501Z,33.30
2019-04-04T12:55:36.353Z,33.70
2019-04-04T13:00:41.188Z,32.50
2019-04-04T13:05:46.025Z,32.70
2019-04-04T13:10:51.533Z,33.40
2019-04-04T13:15:56.763Z,32.90
2019-04-04T13:21:01.640Z,33.00
2019-04-04T13:26:06.490Z,33.60
2019-04-04T13:31:11.265Z,32.90
2019-04-04T13:36:16.185Z,33.70
2019-04-04T13:41:22.083Z,33.20
2019-04-04T13:46:29.422Z,32.80
2019-04-04T13:51:33.968Z,33.40
2019-04-04T13:56:38.809Z,33.40
2019-04-04T14:01:43.647Z,33.60
2019-04-04T14:06:48.479Z,34.40
2019-04-04T14:11:54.384Z,34.50
2019-04-04T14:16:59.223Z,34.50
2019-04-04T14:22:04.069Z,35.40
2019-04-04T14:27:08.903Z,34.40
2019-04-04T14:32:13.766Z,34.40
2019-04-04T14:37:18.604Z,35.50
2019-04-04T14:42:23.445Z,34.70
2019-04-04T14:47:28.280Z,34.60
2019-04-04T14:52:33.123Z,35.00
2019-04-04T14:57:37.895Z,35.20
2019-04-04T15:02:42.730Z,35.20
2019-04-04T15:07:47.563Z,35.30
2019-04-04T15:12:52.493Z,36.80
2019-04-04T15:17:57.360Z,35.70
2019-04-04T15:23:02.118Z,36.00
2019-04-04T15:28:06.954Z,36.10
2019-04-04T15:33:11.789Z,36.00
2019-04-04T15:38:16.621Z,36.60
2019-04-04T15:43:21.452Z,37.00
2019-04-04T15:48:28.766Z,37.20
2019-04-04T15:53:33.601Z,37.30
2019-04-04T15:58:38.436Z,37.80
2019-04-04T16:03:43.279Z,37.70
2019-04-04T16:08:48.036Z,38.10
2019-04-04T16:13:52.991Z,38.00
2019-04-04T16:18:57.858Z,38.30
2019-04-04T16:24:02.697Z,38.80
2019-04-04T16:29:07.534Z,38.80
2019-04-04T16:34:12.373Z,39.10
2019-04-04T16:39:17.213Z,39.40
2019-04-04T16:44:22.054Z,39.30
2019-04-04T16:49:26.884Z,39.70
2019-04-04T16:54:31.667Z,39.90
2019-04-04T16:59:36.502Z,40.40
2019-04-04T17:04:41.277Z,40.40
2019-04-04T17:09:46.362Z,40.70
2019-04-04T17:14:51.911Z,41.00
2019-04-04T17:19:56.746Z,41.00
2019-04-04T17:25:01.606Z,41.10
2019-04-04T17:30:08.295Z,41.60
2019-04-04T17:35:13.486Z,41.80
2019-04-04T17:40:19.282Z,41.80
2019-04-04T17:45:24.157Z,41.90
2019-04-04T17:50:29.021Z,42.10
2019-04-04T17:55:33.861Z,42.30
2019-04-04T18:00:38.894Z,42.20
2019-04-04T18:05:43.661Z,42.40
2019-04-04T18:10:48.442Z,42.50
2019-04-04T18:15:53.374Z,42.60
2019-04-04T18:20:58.278Z,42.90
2019-04-04T18:26:03.175Z,43.10
2019-04-04T18:31:08.139Z,43.30
2019-04-04T18:36:12.993Z,43.50
2019-04-04T18:41:17.922Z,43.60
2019-04-04T18:46:22.766Z,44.00
2019-04-04T18:51:28.544Z,44.30
2019-04-04T18:56:33.372Z,44.50
2019-04-04T19:01:38.234Z,44.60
2019-04-04T19:06:43.076Z,44.70
2019-04-04T19:11:47.985Z,44.80
2019-04-04T19:16:52.981Z,45.00
2019-04-04T19:21:57.890Z,45.40
2019-04-04T19:27:04.438Z,45.50
2019-04-04T19:32:10.847Z,45.60
2019-04-04T19:37:15.746Z,45.80
2019-04-04T19:42:22.060Z,46.40
2019-04-04T19:47:26.902Z,46.50
2019-04-04T19:52:31.732Z,46.60
2019-04-04T19:57:44.097Z,47.00
2019-04-04T20:02:48.929Z,47.20
2019-04-04T20:07:53.696Z,47.70
2019-04-04T20:12:59.212Z,47.80
2019-04-04T20:18:04.184Z,48.10
2019-04-04T20:23:09.012Z,48.00
2019-04-04T20:28:13.846Z,48.30
2019-04-04T20:33:18.689Z,48.40
2019-04-04T20:38:23.478Z,48.70
2019-04-04T20:43:28.293Z,48.70
2019-04-04T20:48:33.137Z,48.60
2019-04-04T20:53:38.993Z,48.70
2019-04-04T20:58:43.832Z,48.80
2019-04-04T21:03:50.589Z,49.20
2019-04-04T21:08:55.466Z,49.40
2019-04-04T21:14:00.311Z,49.70
2019-04-04T21:19:05.235Z,50.00
2019-04-04T21:24:10.136Z,51.00
2019-04-04T21:29:15.288Z,50.80
2019-04-04T21:34:20.132Z,51.20
2019-04-04T21:39:24.964Z,51.40
2019-04-04T21:44:29.806Z,51.90
2019-04-04T21:49:34.638Z,52.10
2019-04-04T21:54:39.412Z,52.40
2019-04-04T21:59:44.240Z,52.70
2019-04-04T22:04:49.288Z,53.10
2019-04-04T22:09:54.137Z,53.30
2019-04-04T22:14:58.905Z,53.50
2019-04-04T22:20:04.948Z,54.00
2019-04-04T22:25:09.891Z,54.30
2019-04-04T22:30:14.937Z,54.60
2019-04-04T22:35:22.709Z,54.80
2019-04-04T22:40:27.543Z,55.20
2019-04-04T22:45:32.393Z,55.60
2019-04-04T22:50:37.144Z,56.20
2019-04-04T22:55:41.991Z,56.50
2019-04-04T23:00:46.825Z,56.90
2019-04-04T23:05:51.660Z,57.20
2019-04-04T23:10:56.424Z,57.60
2019-04-04T23:16:01.200Z,58.00
2019-04-04T23:21:06.387Z,58.50
2019-04-04T23:26:11.212Z,58.90
2019-04-04T23:31:15.905Z,59.40
2019-04-04T23:36:20.740Z,59.90
2019-04-04T23:41:25.511Z,60.90
2019-04-04T23:46:30.276Z,61.50
2019-04-04T23:51:35.036Z,61.80
2019-04-04T23:56:39.877Z,62.20
